createdAt,value
2019-04-30T00:00:34.838Z,17.55
2019-04-30T00:03:06.614Z,17.57
2019-04-30T00:05:35.261Z,18.73
2019-04-30T00:08:05.469Z,17.95
2019-04-30T00:10:39.655Z,18.02
2019-04-30T00:13:06.088Z,18.07
2019-04-30T00:15:35.718Z,19.00
2019-04-30T00:18:05.520Z,17.45
2019-04-30T00:20:37.196Z,17.75
2019-04-30T00:23:05.161Z,18.50
2019-04-30T00:25:35.186Z,17.67
2019-04-30T00:28:05.231Z,17.43
2019-04-30T00:30:35.038Z,17.33
2019-04-30T00:33:05.662Z,17.10
2019-04-30T00:35:35.541Z,17.75
2019-04-30T00:38:05.062Z,17.70
2019-04-30T00:40:35.201Z,17.02
2019-04-30T00:43:05.271Z,16.37
2019-04-30T00:45:35.363Z,17.05
2019-04-30T00:48:05.866Z,17.62
2019-04-30T00:50:37.233Z,17.12
2019-04-30T00:53:05.931Z,17.23
2019-04-30T00:55:38.155Z,18.15
2019-04-30T00:58:05.946Z,18.17
2019-04-30T01:00:37.180Z,16.53
2019-04-30T01:03:13.383Z,16.70
2019-04-30T01:05:46.493Z,17.57
2019-04-30T01:08:11.940Z,18.60
2019-04-30T01:10:40.346Z,17.57
2019-04-30T01:13:11.932Z,18.67
2019-04-30T01:15:39.098Z,18.20
2019-04-30T01:18:09.237Z,18.98
2019-04-30T01:20:38.591Z,17.57
2019-04-30T01:23:11.264Z,17.60
2019-04-30T01:25:38.866Z,18.45
2019-04-30T01:28:08.400Z,18.07
2019-04-30T01:30:39.296Z,18.40
2019-04-30T01:33:09.125Z,17.67
2019-04-30T01:35:38.226Z,18.60
2019-04-30T01:38:11.148Z,18.05
2019-04-30T01:40:42.790Z,18.30
2019-04-30T01:43:11.666Z,18.30
2019-04-30T01:45:40.091Z,18.12
2019-04-30T01:48:12.436Z,17.90
2019-04-30T01:50:42.077Z,17.50
2019-04-30T01:53:13.060Z,17.82
2019-04-30T01:55:41.486Z,18.27
2019-04-30T01:58:11.713Z,17.82
2019-04-30T02:00:54.022Z,18.70
2019-04-30T02:03:22.433Z,19.27
2019-04-30T02:05:50.851Z,19.57
2019-04-30T02:08:19.657Z,18.17
2019-04-30T02:10:49.136Z,19.42
2019-04-30T02:13:18.883Z,19.00
2019-04-30T02:15:49.257Z,19.70
2019-04-30T02:18:19.542Z,19.12
2019-04-30T02:20:49.669Z,19.67
2019-04-30T02:23:19.636Z,19.30
2019-04-30T02:25:49.045Z,19.45
2019-04-30T02:28:18.998Z,20.30
2019-04-30T02:30:50.257Z,19.02
2019-04-30T02:33:19.949Z,20.25
2019-04-30T02:36:06.004Z,18.62
2019-04-30T02:38:36.047Z,20.65
2019-04-30T02:41:06.216Z,19.65
2019-04-30T02:43:36.222Z,19.67
2019-04-30T02:46:05.587Z,21.65
2019-04-30T02:48:36.278Z,22.45
2019-04-30T02:51:06.508Z,23.45
2019-04-30T02:53:50.529Z,21.40
2019-04-30T02:56:20.206Z,20.80
2019-04-30T02:58:50.732Z,21.45
2019-04-30T03:01:20.414Z,22.40
2019-04-30T03:03:50.172Z,21.55
2019-04-30T03:06:20.530Z,20.70
2019-04-30T03:08:51.130Z,20.95
2019-04-30T03:11:20.651Z,22.67
2019-04-30T03:13:52.234Z,22.22
2019-04-30T03:16:22.303Z,23.67
2019-04-30T03:18:52.385Z,22.73
2019-04-30T03:21:40.491Z,23.60
2019-04-30T03:24:10.756Z,22.45
2019-04-30T03:26:40.000Z,22.93
2019-04-30T03:29:11.190Z,20.52
2019-04-30T03:31:43.785Z,22.22
2019-04-30T03:34:12.352Z,24.10
2019-04-30T03:36:40.397Z,21.70
2019-04-30T03:39:10.749Z,23.18
2019-04-30T03:41:41.225Z,22.82
2019-04-30T03:44:20.971Z,23.32
2019-04-30T03:46:40.321Z,22.45
2019-04-30T03:49:10.616Z,21.30
2019-04-30T03:51:40.452Z,22.40
2019-04-30T03:54:10.035Z,22.40
2019-04-30T03:56:41.959Z,21.95
2019-04-30T03:59:10.887Z,21.68
2019-04-30T04:01:44.043Z,22.17
2019-04-30T04:04:30.940Z,21.35
2019-04-30T04:07:01.690Z,22.05
2019-04-30T04:09:31.782Z,22.40
2019-04-30T04:12:20.458Z,22.02
2019-04-30T04:14:50.721Z,21.70
2019-04-30T04:17:20.205Z,22.13
2019-04-30T04:19:51.747Z,23.57
2019-04-30T04:22:21.072Z,24.27
2019-04-30T04:24:50.887Z,23.02
2019-04-30T04:27:19.853Z,24.75
2019-04-30T04:29:51.046Z,24.57
2019-04-30T04:32:20.655Z,23.60
2019-04-30T04:34:50.570Z,22.93
2019-04-30T04:37:19.765Z,23.65
2019-04-30T04:39:50.273Z,21.80
2019-04-30T04:42:19.548Z,22.80
2019-04-30T04:44:50.129Z,23.42
2019-04-30T04:47:20.030Z,24.40
2019-04-30T04:49:53.115Z,23.97
2019-04-30T04:52:21.390Z,24.47
2019-04-30T04:54:50.811Z,26.52
2019-04-30T04:57:22.404Z,23.67
2019-04-30T04:59:50.072Z,24.60
2019-04-30T05:02:32.110Z,24.03
2019-04-30T05:05:00.153Z,24.23
2019-04-30T05:07:29.265Z,25.70
2019-04-30T05:10:00.552Z,26.80
2019-04-30T05:12:29.764Z,25.37
2019-04-30T05:14:59.803Z,26.53
2019-04-30T05:17:29.691Z,25.37
2019-04-30T05:19:58.847Z,24.15
2019-04-30T05:22:29.196Z,26.48
2019-04-30T05:24:58.868Z,28.38
2019-04-30T05:27:27.488Z,28.25
2019-04-30T05:29:55.973Z,27.25
2019-04-30T05:32:24.404Z,26.57
2019-04-30T05:34:52.824Z,26.85
2019-04-30T05:37:22.553Z,27.60
2019-04-30T05:39:51.037Z,25.75
2019-04-30T05:42:19.446Z,26.57
2019-04-30T05:44:49.687Z,24.70
2019-04-30T05:47:19.637Z,26.47
2019-04-30T05:49:48.967Z,25.80
2019-04-30T05:52:19.722Z,25.62
2019-04-30T05:54:48.806Z,25.80
2019-04-30T05:57:19.544Z,25.60
2019-04-30T05:59:48.714Z,24.18
2019-04-30T06:02:19.396Z,25.70
2019-04-30T06:04:48.942Z,25.88
2019-04-30T06:07:18.938Z,24.98
2019-04-30T06:09:53.091Z,25.17
2019-04-30T06:12:29.114Z,25.48
2019-04-30T06:15:05.131Z,24.33
2019-04-30T06:17:34.189Z,24.60
2019-04-30T06:20:02.700Z,23.85
2019-04-30T06:22:31.175Z,23.55
2019-04-30T06:24:59.846Z,25.20
2019-04-30T06:27:29.161Z,23.75
2019-04-30T06:29:58.511Z,25.35
2019-04-30T06:32:26.947Z,24.90
2019-04-30T06:34:55.634Z,25.08
2019-04-30T06:37:24.290Z,24.32
2019-04-30T06:39:52.711Z,26.20
2019-04-30T06:42:21.218Z,25.80
2019-04-30T06:44:50.282Z,26.50
2019-04-30T06:47:32.384Z,25.82
2019-04-30T06:49:51.099Z,25.70
2019-04-30T06:52:23.012Z,25.40
2019-04-30T06:54:49.957Z,24.90
2019-04-30T06:57:19.822Z,24.50
2019-04-30T06:59:51.324Z,25.80
2019-04-30T07:02:19.660Z,25.62
2019-04-30T07:04:49.316Z,25.90
2019-04-30T07:07:22.827Z,25.85
2019-04-30T07:09:59.242Z,24.23
2019-04-30T07:12:44.444Z,24.67
2019-04-30T07:15:13.781Z,24.30
2019-04-30T07:17:42.386Z,24.50
2019-04-30T07:20:11.042Z,25.32
2019-04-30T07:22:45.511Z,26.35
2019-04-30T07:25:09.655Z,26.65
2019-04-30T07:27:40.166Z,27.62
2019-04-30T07:30:10.016Z,25.30
2019-04-30T07:32:39.571Z,24.80
2019-04-30T07:35:09.538Z,24.50
2019-04-30T07:37:39.275Z,24.98
2019-04-30T07:40:09.303Z,25.05
2019-04-30T07:42:44.431Z,26.62
2019-04-30T07:45:09.686Z,24.97
2019-04-30T07:47:39.490Z,25.73
2019-04-30T07:50:10.786Z,24.72
2019-04-30T07:52:58.073Z,24.65
2019-04-30T07:55:09.794Z,26.20
2019-04-30T07:57:40.454Z,24.57
2019-04-30T08:00:09.794Z,24.37
2019-04-30T08:02:43.520Z,23.57
2019-04-30T08:05:24.105Z,25.20
2019-04-30T08:07:52.623Z,22.55
2019-04-30T08:10:21.086Z,22.00
2019-04-30T08:12:50.770Z,21.60
2019-04-30T08:15:19.943Z,22.75
2019-04-30T08:18:01.886Z,21.00
2019-04-30T08:20:19.652Z,20.85
2019-04-30T08:22:49.389Z,21.23
2019-04-30T08:25:19.937Z,21.35
2019-04-30T08:27:49.249Z,19.25
2019-04-30T08:30:23.898Z,19.65
2019-04-30T08:32:49.946Z,20.47
2019-04-30T08:35:19.675Z,19.75
2019-04-30T08:37:49.710Z,20.75
2019-04-30T08:40:19.060Z,18.57
2019-04-30T08:42:49.502Z,19.00
2019-04-30T08:45:19.730Z,17.23
2019-04-30T08:47:49.335Z,20.43
2019-04-30T08:50:19.850Z,19.30
2019-04-30T08:52:49.828Z,17.98
2019-04-30T08:55:22.387Z,18.42
2019-04-30T08:57:50.144Z,18.10
2019-04-30T09:00:20.051Z,17.67
2019-04-30T09:02:49.308Z,18.57
2019-04-30T09:05:22.250Z,18.00
2019-04-30T09:07:50.670Z,17.02
2019-04-30T09:10:19.297Z,18.03
2019-04-30T09:12:49.507Z,16.30
2019-04-30T09:15:18.906Z,17.85
2019-04-30T09:18:00.304Z,18.82
2019-04-30T09:20:19.446Z,18.47
2019-04-30T09:22:49.639Z,17.20
2019-04-30T09:25:19.449Z,16.90
2019-04-30T09:27:48.794Z,18.70
2019-04-30T09:30:18.835Z,17.10
2019-04-30T09:32:47.502Z,19.60
2019-04-30T09:35:16.191Z,19.82
2019-04-30T09:37:44.607Z,19.44
2019-04-30T09:40:18.244Z,19.27
2019-04-30T09:42:44.093Z,18.52
2019-04-30T09:45:12.498Z,17.60
2019-04-30T09:47:42.089Z,18.12
2019-04-30T09:50:12.276Z,18.85
2019-04-30T09:52:41.023Z,16.90
2019-04-30T09:55:10.091Z,17.23
2019-04-30T09:57:39.063Z,19.30
2019-04-30T10:00:09.853Z,18.57
2019-04-30T10:02:38.873Z,18.87
2019-04-30T10:05:08.930Z,17.48
2019-04-30T10:07:39.377Z,17.82
2019-04-30T10:10:11.235Z,18.07
2019-04-30T10:12:39.271Z,17.35
2019-04-30T10:15:10.782Z,17.00
2019-04-30T10:17:41.067Z,16.93
2019-04-30T10:20:12.392Z,16.97
2019-04-30T10:22:40.829Z,16.83
2019-04-30T10:25:10.833Z,16.05
2019-04-30T10:27:39.351Z,16.50
2019-04-30T10:30:09.411Z,17.32
2019-04-30T10:32:38.323Z,16.90
2019-04-30T10:35:07.680Z,15.23
2019-04-30T10:37:36.168Z,16.60
2019-04-30T10:40:07.421Z,15.93
2019-04-30T10:42:35.833Z,14.95
2019-04-30T10:45:07.333Z,14.05
2019-04-30T10:47:35.752Z,14.53
2019-04-30T10:50:06.938Z,16.80
2019-04-30T10:55:04.550Z,15.75
2019-04-30T10:57:33.204Z,16.23
2019-04-30T11:00:01.911Z,14.85
2019-04-30T11:02:31.179Z,17.42
2019-04-30T11:04:59.808Z,15.93
2019-04-30T11:07:28.798Z,17.75
2019-04-30T11:09:58.838Z,15.95
2019-04-30T11:12:29.067Z,16.80
2019-04-30T11:14:57.498Z,17.17
2019-04-30T11:17:26.097Z,15.23
2019-04-30T11:19:54.665Z,16.57
2019-04-30T11:22:23.291Z,14.38
2019-04-30T11:24:58.977Z,17.02
2019-04-30T11:27:22.576Z,15.73
2019-04-30T11:29:51.554Z,14.45
2019-04-30T11:32:21.933Z,16.13
2019-04-30T11:34:50.553Z,15.50
2019-04-30T11:37:19.028Z,15.60
2019-04-30T11:39:47.443Z,14.47
2019-04-30T11:42:15.869Z,14.63
2019-04-30T11:44:44.266Z,16.87
2019-04-30T11:47:16.950Z,15.40
2019-04-30T11:49:45.366Z,16.27
2019-04-30T11:52:13.765Z,14.80
2019-04-30T11:54:49.181Z,16.60
2019-04-30T11:57:12.382Z,15.72
2019-04-30T11:59:40.798Z,14.83
2019-04-30T12:02:10.847Z,17.07
2019-04-30T12:04:39.711Z,17.83
2019-04-30T12:07:12.984Z,17.17
2019-04-30T12:09:48.621Z,16.27
2019-04-30T12:12:18.815Z,15.43
2019-04-30T12:14:47.190Z,17.93
2019-04-30T12:17:15.916Z,16.70
2019-04-30T12:19:44.769Z,19.10
2019-04-30T12:22:13.162Z,16.93
2019-04-30T12:24:41.567Z,18.07
2019-04-30T12:27:10.058Z,20.50
2019-04-30T12:29:39.774Z,19.40
2019-04-30T12:32:08.675Z,18.20
2019-04-30T12:34:37.078Z,18.62
2019-04-30T12:37:05.499Z,17.07
2019-04-30T12:39:33.911Z,19.37
2019-04-30T12:42:02.350Z,19.80
2019-04-30T12:44:30.741Z,21.90
2019-04-30T12:46:59.166Z,21.97
2019-04-30T12:49:29.211Z,22.20
2019-04-30T12:51:59.286Z,22.15
2019-04-30T12:54:29.322Z,20.57
2019-04-30T12:57:01.790Z,19.27
2019-04-30T12:59:30.190Z,17.23
2019-04-30T13:01:59.363Z,17.77
2019-04-30T13:04:29.385Z,17.07
2019-04-30T13:07:01.460Z,18.13
2019-04-30T13:09:30.144Z,17.07
2019-04-30T13:12:00.568Z,16.17
2019-04-30T13:14:30.166Z,18.32
2019-04-30T13:16:59.041Z,16.40
2019-04-30T13:19:27.511Z,16.40
2019-04-30T13:21:58.507Z,17.87
2019-04-30T13:24:26.489Z,18.57
2019-04-30T13:26:55.003Z,18.75
2019-04-30T13:29:34.182Z,16.42
2019-04-30T13:32:02.626Z,17.65
2019-04-30T13:34:50.981Z,18.23
2019-04-30T13:37:19.415Z,17.40
2019-04-30T13:40:01.888Z,16.10
2019-04-30T13:42:32.010Z,15.63
2019-04-30T13:45:00.429Z,14.05
2019-04-30T13:47:29.327Z,14.30
2019-04-30T13:50:12.100Z,14.40
2019-04-30T13:52:41.325Z,13.55
2019-04-30T13:55:10.940Z,13.08
2019-04-30T13:57:39.522Z,13.62
2019-04-30T14:00:12.223Z,13.50
2019-04-30T14:02:44.736Z,14.45
2019-04-30T14:05:18.404Z,14.75
2019-04-30T14:08:04.939Z,15.03
2019-04-30T14:10:34.989Z,13.83
2019-04-30T14:13:04.394Z,13.83
2019-04-30T14:15:32.799Z,16.25
2019-04-30T14:18:01.663Z,16.48
2019-04-30T14:20:30.078Z,15.40
2019-04-30T14:22:58.490Z,16.57
2019-04-30T14:25:26.983Z,16.32
2019-04-30T14:27:55.503Z,13.72
2019-04-30T14:30:24.290Z,14.07
2019-04-30T14:32:52.694Z,13.70
2019-04-30T14:35:21.474Z,16.85
2019-04-30T14:37:49.892Z,17.17
2019-04-30T14:40:20.223Z,15.85
2019-04-30T14:42:51.657Z,14.96
2019-04-30T14:45:28.999Z,13.23
2019-04-30T14:48:11.955Z,13.80
2019-04-30T14:50:40.918Z,11.75
2019-04-30T14:53:10.984Z,13.15
2019-04-30T14:56:08.822Z,13.28
2019-04-30T14:58:31.123Z,12.93
2019-04-30T15:01:19.361Z,12.47
2019-04-30T15:03:49.507Z,14.70
2019-04-30T15:06:19.372Z,16.07
2019-04-30T15:08:49.490Z,16.97
2019-04-30T15:11:19.055Z,17.17
2019-04-30T15:13:49.292Z,19.48
2019-04-30T15:16:17.919Z,16.63
2019-04-30T15:18:46.335Z,16.50
2019-04-30T15:21:14.775Z,16.60
2019-04-30T15:23:58.583Z,16.07
2019-04-30T15:26:25.226Z,16.37
2019-04-30T15:28:53.798Z,18.07
2019-04-30T15:31:22.498Z,18.55
2019-04-30T15:34:02.884Z,17.10
2019-04-30T15:36:29.805Z,17.23
2019-04-30T15:39:16.389Z,18.30
2019-04-30T15:41:45.053Z,16.53
2019-04-30T15:44:13.688Z,15.05
2019-04-30T15:46:42.245Z,15.72
2019-04-30T15:49:10.652Z,15.00
2019-04-30T15:51:39.161Z,15.55
2019-04-30T15:54:07.570Z,16.77
2019-04-30T15:56:40.019Z,16.82
2019-04-30T15:59:13.385Z,16.90
2019-04-30T16:01:43.990Z,16.85
2019-04-30T16:04:14.038Z,17.53
2019-04-30T16:06:42.465Z,17.23
2019-04-30T16:09:30.865Z,18.40
2019-04-30T16:12:12.713Z,19.00
2019-04-30T16:17:15.514Z,17.55
2019-04-30T16:19:44.215Z,17.02
2019-04-30T16:22:12.798Z,18.00
2019-04-30T16:24:41.219Z,18.40
2019-04-30T16:27:09.701Z,16.37
2019-04-30T16:29:38.794Z,17.95
2019-04-30T16:32:09.254Z,17.57
2019-04-30T16:34:38.893Z,18.05
2019-04-30T16:37:07.644Z,17.67
2019-04-30T16:39:36.063Z,16.95
2019-04-30T16:42:05.233Z,17.27
2019-04-30T16:44:36.577Z,17.15
2019-04-30T16:47:13.590Z,17.25
2019-04-30T16:49:35.296Z,18.17
2019-04-30T16:52:03.780Z,17.45
2019-04-30T16:54:36.391Z,17.75
2019-04-30T16:57:06.885Z,18.23
2019-04-30T16:59:42.469Z,18.33
2019-04-30T17:02:12.155Z,18.92
2019-04-30T17:04:42.482Z,18.35
2019-04-30T17:07:28.949Z,17.70
2019-04-30T17:10:10.963Z,18.73
2019-04-30T17:12:43.460Z,18.60
2019-04-30T17:15:13.989Z,17.17
2019-04-30T17:17:42.493Z,17.40
2019-04-30T17:20:11.442Z,18.45
2019-04-30T17:22:39.857Z,18.35
2019-04-30T17:25:08.808Z,18.05
2019-04-30T17:27:39.138Z,18.95
2019-04-30T17:30:09.085Z,18.42
2019-04-30T17:32:39.482Z,17.80
2019-04-30T17:35:09.121Z,17.33
2019-04-30T17:37:37.608Z,18.27
2019-04-30T17:40:09.255Z,18.87
2019-04-30T17:42:37.215Z,18.57
2019-04-30T17:45:09.285Z,19.05
2019-04-30T17:47:37.525Z,19.12
2019-04-30T17:50:08.746Z,18.07
2019-04-30T17:52:37.088Z,19.12
2019-04-30T17:55:09.926Z,20.17
2019-04-30T17:57:40.318Z,19.32
2019-04-30T18:00:18.829Z,19.85
2019-04-30T18:02:41.205Z,20.17
2019-04-30T18:05:11.325Z,20.82
2019-04-30T18:07:39.936Z,19.97
2019-04-30T18:10:10.600Z,20.30
2019-04-30T18:12:39.243Z,19.65
2019-04-30T18:15:12.430Z,19.63
2019-04-30T18:17:42.947Z,20.70
2019-04-30T18:20:13.030Z,21.37
2019-04-30T18:22:59.999Z,20.27
2019-04-30T18:25:30.064Z,18.92
2019-04-30T18:28:02.538Z,20.37
2019-04-30T18:30:35.369Z,20.85
2019-04-30T18:33:04.430Z,20.00
2019-04-30T18:35:33.310Z,19.42
2019-04-30T18:38:01.759Z,20.25
2019-04-30T18:40:30.353Z,20.85
2019-04-30T18:42:59.392Z,20.92
2019-04-30T18:45:28.822Z,20.55
2019-04-30T18:47:59.545Z,20.55
2019-04-30T18:50:27.609Z,20.30
2019-04-30T18:52:58.724Z,21.30
2019-04-30T18:55:28.127Z,19.87
2019-04-30T18:57:59.174Z,19.30
2019-04-30T19:00:29.414Z,20.60
2019-04-30T19:05:30.967Z,20.68
2019-04-30T19:08:00.220Z,20.17
2019-04-30T19:10:30.405Z,20.00
2019-04-30T19:13:02.902Z,19.93
2019-04-30T19:16:14.244Z,19.27
2019-04-30T19:18:25.851Z,19.73
2019-04-30T19:20:55.708Z,20.50
2019-04-30T19:23:24.180Z,20.75
2019-04-30T19:25:52.598Z,19.67
2019-04-30T19:28:21.090Z,20.08
2019-04-30T19:30:57.983Z,19.05
2019-04-30T19:33:19.642Z,19.90
2019-04-30T19:35:50.387Z,19.32
2019-04-30T19:38:18.190Z,20.17
2019-04-30T19:40:46.602Z,19.95
2019-04-30T19:43:15.181Z,19.95
2019-04-30T19:45:43.605Z,19.57
2019-04-30T19:48:12.032Z,19.35
2019-04-30T19:50:40.442Z,19.75
2019-04-30T19:53:09.023Z,19.95
2019-04-30T19:55:39.396Z,20.23
2019-04-30T19:58:07.941Z,20.47
2019-04-30T20:00:36.351Z,19.73
2019-04-30T20:03:04.761Z,17.95
2019-04-30T20:05:33.238Z,19.93
2019-04-30T20:08:01.695Z,20.65
2019-04-30T20:10:30.178Z,19.62
2019-04-30T20:12:58.853Z,21.82
2019-04-30T20:15:29.641Z,20.00
2019-04-30T20:17:58.364Z,19.77
2019-04-30T20:20:28.774Z,19.55
2019-04-30T20:22:57.367Z,19.90
2019-04-30T20:25:25.781Z,20.02
2019-04-30T20:27:54.187Z,21.13
2019-04-30T20:30:22.610Z,19.80
2019-04-30T20:32:51.367Z,21.48
2019-04-30T20:35:20.005Z,19.10
2019-04-30T20:38:06.458Z,21.62
2019-04-30T20:40:43.269Z,20.05
2019-04-30T20:43:08.445Z,21.17
2019-04-30T20:45:36.658Z,21.52
2019-04-30T20:48:05.202Z,22.00
2019-04-30T20:50:33.986Z,22.15
2019-04-30T20:53:02.413Z,20.68
2019-04-30T20:55:30.819Z,20.15
2019-04-30T20:57:59.547Z,19.50
2019-04-30T21:00:28.123Z,21.12
2019-04-30T21:02:56.549Z,21.10
2019-04-30T21:05:25.033Z,21.57
2019-04-30T21:07:53.449Z,21.77
2019-04-30T21:10:21.915Z,22.60
2019-04-30T21:12:50.311Z,21.62
2019-04-30T21:15:19.687Z,22.70
2019-04-30T21:17:48.429Z,21.50
2019-04-30T21:20:19.377Z,21.05
2019-04-30T21:22:49.434Z,21.87
2019-04-30T21:25:18.885Z,21.93
2019-04-30T21:27:49.890Z,22.00
2019-04-30T21:30:17.899Z,21.27
2019-04-30T21:32:48.556Z,21.80
2019-04-30T21:35:24.978Z,19.70
2019-04-30T21:37:55.237Z,20.20
2019-04-30T21:40:23.721Z,21.30
2019-04-30T21:42:52.126Z,21.20
2019-04-30T21:45:20.564Z,21.53
2019-04-30T21:47:56.155Z,20.75
2019-04-30T21:50:19.722Z,21.37
2019-04-30T21:52:49.577Z,20.88
2019-04-30T21:55:19.802Z,20.80
2019-04-30T21:57:49.621Z,21.20
2019-04-30T22:00:29.695Z,20.75
2019-04-30T22:02:59.812Z,21.35
2019-04-30T22:05:28.413Z,21.13
2019-04-30T22:07:59.055Z,20.52
2019-04-30T22:10:26.995Z,20.08
2019-04-30T22:12:55.431Z,21.48
2019-04-30T22:15:23.845Z,20.27
2019-04-30T22:17:52.254Z,19.67
2019-04-30T22:20:20.955Z,21.37
2019-04-30T22:22:49.602Z,21.30
2019-04-30T22:25:19.383Z,19.80
2019-04-30T22:27:47.910Z,18.95
2019-04-30T22:30:16.817Z,21.73
2019-04-30T22:32:45.218Z,20.77
2019-04-30T22:35:27.030Z,20.48
2019-04-30T22:37:59.151Z,19.95
2019-04-30T22:40:29.058Z,20.48
2019-04-30T22:42:59.249Z,20.27
2019-04-30T22:45:29.560Z,19.23
2019-04-30T22:47:58.889Z,20.25
2019-04-30T22:50:27.659Z,20.40
2019-04-30T22:52:56.303Z,20.48
2019-04-30T22:55:24.720Z,19.94
2019-04-30T22:57:53.123Z,20.25
2019-04-30T23:00:29.115Z,20.02
2019-04-30T23:02:59.175Z,21.12
2019-04-30T23:05:27.581Z,20.62
2019-04-30T23:07:55.986Z,20.43
2019-04-30T23:10:24.404Z,21.48
2019-04-30T23:12:53.261Z,19.82
2019-04-30T23:15:21.790Z,19.57
2019-04-30T23:17:50.200Z,19.77
2019-04-30T23:20:18.748Z,19.95
2019-04-30T23:22:47.253Z,21.20
2019-04-30T23:25:15.730Z,22.00
2019-04-30T23:27:44.145Z,21.52
2019-04-30T23:30:13.094Z,21.42
2019-04-30T23:32:41.605Z,21.40
2019-04-30T23:35:10.490Z,21.70
2019-04-30T23:37:38.979Z,21.57
2019-04-30T23:40:28.949Z,22.58
2019-04-30T23:42:57.686Z,21.82
2019-04-30T23:45:26.166Z,21.30
2019-04-30T23:47:54.653Z,20.10
2019-04-30T23:50:23.125Z,20.08
2019-04-30T23:52:51.871Z,22.85
2019-04-30T23:55:20.346Z,21.02
2019-04-30T23:57:48.774Z,20.70
